Sturgis, MI

1:59 AM EDT on October 22, 2017 (GMT -0400)
Kirsch Municipal

Weather History for KIRS - September, 2012

Change the Weather History Date:

Friday, September 7, 2012

  Actual Average (KHAI) Record (KHAI)
Temperature  
Mean Temperature 68 °F -  
Max Temperature 78 °F 79 °F 95 °F (1960)
Min Temperature 57 °F 54 °F 38 °F (1962)
Cooling Degree Days 2    
Growing Degree Days 18 (Base 50)    
Moisture  
Dew Point 61 °F    
Average Humidity 84    
Maximum Humidity 100    
Minimum Humidity 54    
Precipitation  
Precipitation 0.00 in - - ()
Sea Level Pressure  
Sea Level Pressure 29.85 in    
Wind  
Wind Speed 3 mph (SSW)    
Max Wind Speed 16 mph    
Max Gust Speed 25 mph    
Visibility 9 miles    
Events Rain    
Averages and records for this station are not official NWS values.
T = Trace of Precipitation, MM = Missing Value Source: NWS Daily Summary

Daily Weather History Graph

Daily Weather History Graph

Search for Another Location

Airport or City:

Trip Planner

Search our weather history database for the weather conditions in past years. The results will help you decide how hot, cold, wet, or windy it might be!

Date:

Astronomy

Sep. 07, 2012 Rise Set
Actual Time 7:14 AM EDT 8:04 PM EDT
Civil Twilight 6:45 AM EDT 8:32 PM EDT
Nautical Twilight 6:12 AM EDT 9:05 PM EDT
Astronomical Twilight 5:37 AM EDT 9:40 PM EDT
Moon 11:52 PM EDT (9/7) 2:12 PM EDT (9/7)
Length of Visible Light 13h 46m
Length of Day
12h 49m
Waning Gibbous, 58% of the Moon is Illuminated
Sep 7
Waning Gibbous
Sep 8
Last Quarter
Sep 15
New
Sep 22
First Quarter
Sep 29
Full

Hourly Weather History & Observations

Time (EDT) Temp. Dew Point Humidity Pressure Visibility Wind Dir Wind Speed Gust Speed Precip Events Conditions
12:14 AM 62.6 °F 59.0 °F 88% 29.93 in 10.0 mi North 3.5 mph - N/A   Clear
12:35 AM 62.6 °F 60.8 °F 94% 29.92 in 10.0 mi NNE 6.9 mph - N/A   Clear
12:54 AM 62.6 °F 60.8 °F 94% 29.92 in 10.0 mi NNE 4.6 mph - N/A   Clear
1:15 AM 62.6 °F 60.8 °F 94% 29.92 in 10.0 mi Calm Calm - N/A   Clear
1:35 AM 60.8 °F 57.2 °F 88% 29.93 in 10.0 mi Calm Calm - N/A   Clear
1:55 AM 60.8 °F 57.2 °F 88% 29.93 in 10.0 mi Calm Calm - N/A   Clear
2:15 AM 60.8 °F 59.0 °F 94% 29.93 in 10.0 mi Calm Calm - N/A   Clear
2:34 AM 57.2 °F 57.2 °F 100% 29.93 in 7.0 mi Calm Calm - N/A   Clear
2:55 AM 57.2 °F 57.2 °F 100% 29.92 in 7.0 mi Calm Calm - N/A   Clear
3:15 AM 59.0 °F 57.2 °F 94% 29.92 in 10.0 mi Calm Calm - N/A   Clear
3:34 AM 59.0 °F 57.2 °F 94% 29.92 in 7.0 mi Calm Calm - N/A   Clear
3:55 AM 59.0 °F 57.2 °F 94% 29.92 in 7.0 mi Calm Calm - N/A   Clear
4:15 AM 57.2 °F 57.2 °F 100% 29.92 in 7.0 mi Calm Calm - N/A   Clear
4:34 AM 57.2 °F 57.2 °F 100% 29.92 in 4.0 mi Calm Calm - N/A   Clear
4:55 AM 57.2 °F 55.4 °F 94% 29.92 in 4.0 mi Calm Calm - N/A   Clear
5:14 AM 57.2 °F 55.4 °F 94% 29.91 in 5.0 mi Calm Calm - N/A   Clear
5:35 AM 57.2 °F 55.4 °F 94% 29.90 in 7.0 mi Calm Calm - N/A   Clear
5:55 AM 57.2 °F 57.2 °F 100% 29.90 in 7.0 mi Calm Calm - N/A   Clear
6:14 AM 57.2 °F 57.2 °F 100% 29.90 in 7.0 mi Calm Calm - N/A   Clear
6:35 AM 59.0 °F 57.2 °F 94% 29.90 in 7.0 mi Calm Calm - N/A   Clear
6:55 AM 59.0 °F 57.2 °F 94% 29.89 in 7.0 mi Calm Calm - N/A   Clear
7:14 AM 59.0 °F 57.2 °F 94% 29.89 in 7.0 mi Calm Calm - N/A   Clear
7:35 AM 57.2 °F 57.2 °F 100% 29.89 in 7.0 mi Calm Calm - N/A   Clear
7:55 AM 60.8 °F 59.0 °F 94% 29.90 in 7.0 mi Calm Calm - N/A   Clear
8:14 AM 60.8 °F 60.8 °F 100% 29.91 in 5.0 mi Calm Calm - N/A   Clear
8:35 AM 62.6 °F 60.8 °F 94% 29.91 in 7.0 mi Calm Calm - N/A   Clear
8:55 AM 62.6 °F 60.8 °F 94% 29.92 in 5.0 mi Calm Calm - N/A   Clear
9:14 AM 64.4 °F 60.8 °F 88% 29.91 in 10.0 mi Calm Calm - N/A   Clear
9:35 AM 66.2 °F 62.6 °F 88% 29.92 in 10.0 mi Calm Calm - N/A   Clear
9:54 AM 66.2 °F 60.8 °F 83% 29.93 in 10.0 mi Calm Calm - N/A   Clear
10:15 AM 66.2 °F 62.6 °F 88% 29.92 in 10.0 mi Calm Calm - N/A   Clear
10:35 AM 68.0 °F 62.6 °F 83% 29.92 in 10.0 mi Calm Calm - N/A   Clear
10:54 AM 71.6 °F 60.8 °F 69% 29.91 in 10.0 mi Calm Calm - N/A   Clear
11:15 AM 69.8 °F 60.8 °F 73% 29.92 in 10.0 mi Calm Calm - N/A   Clear
11:35 AM 69.8 °F 60.8 °F 73% 29.92 in 10.0 mi Calm Calm - N/A   Clear
11:54 AM 69.8 °F 62.6 °F 78% 29.90 in 10.0 mi SE 3.5 mph - N/A   Clear
12:15 PM 69.8 °F 60.8 °F 73% 29.87 in 10.0 mi SSE 8.1 mph - N/A Rain Light Rain
12:35 PM 69.8 °F 60.8 °F 73% 29.86 in 10.0 mi SSE 9.2 mph - N/A   Scattered Clouds
12:54 PM 71.6 °F 62.6 °F 73% 29.87 in 10.0 mi South 5.8 mph - N/A   Scattered Clouds
1:15 PM 73.4 °F 64.4 °F 73% 29.84 in 10.0 mi South 4.6 mph - N/A   Clear
1:34 PM 75.2 °F 64.4 °F 69% 29.83 in 10.0 mi South 6.9 mph - N/A   Clear
1:54 PM 75.2 °F 64.4 °F 69% 29.81 in 10.0 mi South 5.8 mph - N/A   Clear
2:15 PM 78.8 °F 64.4 °F 61% 29.81 in 10.0 mi SSE 9.2 mph - N/A   Clear
2:34 PM 78.8 °F 64.4 °F 61% 29.81 in 10.0 mi South 6.9 mph - N/A   Clear
2:55 PM 78.8 °F 66.2 °F 65% 29.80 in 10.0 mi SSW 8.1 mph - N/A   Clear
3:15 PM 78.8 °F 64.4 °F 61% 29.79 in 10.0 mi SSW 9.2 mph - N/A   Clear
3:39 PM 78.8 °F 60.8 °F 54% 29.78 in 10.0 mi SSE 8.1 mph - N/A   Clear
4:00 PM 78.8 °F 60.8 °F 54% 29.78 in 10.0 mi South 9.2 mph - N/A   Clear
4:14 PM 78.8 °F 62.6 °F 57% 29.78 in 10.0 mi SSW 9.2 mph - N/A   Clear
4:35 PM 78.8 °F 62.6 °F 57% 29.77 in 10.0 mi SSW 9.2 mph - N/A   Clear
4:54 PM 78.8 °F 60.8 °F 54% 29.76 in 10.0 mi SSW 16.1 mph 25.3 mph N/A   Clear
5:15 PM 77.0 °F 60.8 °F 57% 29.75 in 10.0 mi SSW 13.8 mph 20.7 mph N/A   Clear
5:54 PM 75.2 °F 62.6 °F 65% 29.73 in 10.0 mi SW 13.8 mph - N/A   Clear
6:15 PM 75.2 °F 62.6 °F 65% 29.73 in 10.0 mi WSW 10.4 mph - N/A   Clear
6:35 PM 73.4 °F 62.6 °F 69% 29.74 in 10.0 mi WSW 6.9 mph - N/A   Clear
6:54 PM 73.4 °F 62.6 °F 69% 29.75 in 10.0 mi SW 11.5 mph 17.3 mph N/A   Clear
7:15 PM 71.6 °F 64.4 °F 78% 29.76 in 10.0 mi SW 8.1 mph - N/A Rain Light Rain
7:34 PM 69.8 °F 64.4 °F 83% 29.75 in 10.0 mi SW 6.9 mph - N/A Rain Light Rain
7:55 PM 69.8 °F 64.4 °F 83% 29.74 in 7.0 mi WSW 6.9 mph - N/A Rain Rain
8:14 PM 68.0 °F 66.2 °F 94% 29.75 in 10.0 mi WSW 4.6 mph - N/A Rain Light Rain
8:34 PM 68.0 °F 64.4 °F 88% 29.73 in 10.0 mi Calm Calm - N/A Rain Light Rain
8:55 PM 66.2 °F 66.2 °F 100% 29.76 in 10.0 mi NW 6.9 mph - N/A Rain Light Rain
9:14 PM 66.2 °F 64.4 °F 94% 29.76 in 10.0 mi Calm Calm - N/A Rain Light Rain
9:35 PM 66.2 °F 64.4 °F 94% 29.77 in 10.0 mi Calm Calm - N/A   Overcast
9:55 PM 66.2 °F 64.4 °F 94% 29.76 in 7.0 mi Calm Calm - N/A Rain Light Rain
10:14 PM 64.4 °F 64.4 °F 100% 29.75 in 3.0 mi Calm Calm - N/A Rain Rain
10:35 PM 64.4 °F 62.6 °F 94% 29.76 in 3.0 mi North 10.4 mph - N/A Rain Heavy Rain
10:55 PM 62.6 °F 60.8 °F 94% 29.77 in 5.0 mi North 9.2 mph 17.3 mph N/A Rain Heavy Rain
11:14 PM 60.8 °F 60.8 °F 100% 29.77 in 7.0 mi North 10.4 mph 17.3 mph N/A Rain Rain
11:35 PM 60.8 °F 59.0 °F 94% 29.76 in 10.0 mi North 10.4 mph 16.1 mph N/A Rain Light Rain
11:55 PM 60.8 °F 57.2 °F 88% 29.76 in 7.0 mi NNE 11.5 mph 17.3 mph N/A Rain Rain